sensor_id;sensor_type;location;lat;lon;timestamp;pressure;altitude;pressure_sealevel;temperature;humidity
36192;BME280;22233;42.708;23.360;2023-11-21T00:01:57;95250.25;;;7.19;65.03
36192;BME280;22233;42.708;23.360;2023-11-21T00:04:22;95264.97;;;6.56;67.57
36192;BME280;22233;42.708;23.360;2023-11-21T00:06:48;95240.44;;;6.53;67.23
36192;BME280;22233;42.708;23.360;2023-11-21T00:09:14;95246.22;;;6.65;67.06
36192;BME280;22233;42.708;23.360;2023-11-21T00:11:44;95257.38;;;6.96;66.09
36192;BME280;22233;42.708;23.360;2023-11-21T00:14:11;95252.47;;;6.79;66.67
36192;BME280;22233;42.708;23.360;2023-11-21T00:16:36;95236.16;;;6.71;66.47
36192;BME280;22233;42.708;23.360;2023-11-21T00:19:02;95264.75;;;6.91;66.64
36192;BME280;22233;42.708;23.360;2023-11-21T00:21:27;95264.94;;;6.37;68.16
36192;BME280;22233;42.708;23.360;2023-11-21T00:23:53;95264.00;;;6.47;67.82
36192;BME280;22233;42.708;23.360;2023-11-21T00:26:18;95265.75;;;6.57;67.93
36192;BME280;22233;42.708;23.360;2023-11-21T00:28:43;95260.59;;;6.17;68.99
36192;BME280;22233;42.708;23.360;2023-11-21T00:31:09;95259.13;;;6.06;69.79
36192;BME280;22233;42.708;23.360;2023-11-21T00:33:34;95252.22;;;6.19;69.52
36192;BME280;22233;42.708;23.360;2023-11-21T00:35:59;95257.38;;;6.15;70.06
36192;BME280;22233;42.708;23.360;2023-11-21T00:38:26;95250.25;;;6.25;69.71
36192;BME280;22233;42.708;23.360;2023-11-21T00:40:52;95257.84;;;6.42;68.93
36192;BME280;22233;42.708;23.360;2023-11-21T00:43:21;95254.81;;;6.48;68.51
36192;BME280;22233;42.708;23.360;2023-11-21T00:45:47;95257.94;;;6.55;68.55
36192;BME280;22233;42.708;23.360;2023-11-21T00:48:14;95258.81;;;6.51;68.86
36192;BME280;22233;42.708;23.360;2023-11-21T00:50:40;95252.03;;;6.53;68.50
36192;BME280;22233;42.708;23.360;2023-11-21T00:53:05;95250.44;;;6.71;68.30
36192;BME280;22233;42.708;23.360;2023-11-21T00:55:32;95246.56;;;6.77;67.96
36192;BME280;22233;42.708;23.360;2023-11-21T00:57:58;95255.03;;;6.90;67.30
36192;BME280;22233;42.708;23.360;2023-11-21T01:00:23;95221.75;;;6.75;67.12
36192;BME280;22233;42.708;23.360;2023-11-21T01:02:49;95238.75;;;6.95;66.71
36192;BME280;22233;42.708;23.360;2023-11-21T01:05:14;95245.84;;;6.91;66.59
36192;BME280;22233;42.708;23.360;2023-11-21T01:07:40;95227.84;;;7.00;66.52
36192;BME280;22233;42.708;23.360;2023-11-21T01:10:05;95229.88;;;7.08;65.80
36192;BME280;22233;42.708;23.360;2023-11-21T01:12:34;95242.81;;;7.11;64.96
36192;BME280;22233;42.708;23.360;2023-11-21T01:14:59;95238.25;;;6.93;66.00
36192;BME280;22233;42.708;23.360;2023-11-21T01:17:26;95237.59;;;7.01;66.17
36192;BME280;22233;42.708;23.360;2023-11-21T01:19:52;95240.00;;;7.03;65.55
36192;BME280;22233;42.708;23.360;2023-11-21T01:22:17;95233.94;;;6.92;65.45
36192;BME280;22233;42.708;23.360;2023-11-21T01:24:45;95241.53;;;6.90;65.37
36192;BME280;22233;42.708;23.360;2023-11-21T01:27:10;95239.44;;;6.87;65.08
36192;BME280;22233;42.708;23.360;2023-11-21T01:29:36;95232.78;;;6.79;65.05
36192;BME280;22233;42.708;23.360;2023-11-21T01:32:02;95231.69;;;6.61;65.50
36192;BME280;22233;42.708;23.360;2023-11-21T01:34:28;95227.47;;;6.55;65.50
36192;BME280;22233;42.708;23.360;2023-11-21T01:36:54;95232.72;;;6.46;65.72
36192;BME280;22233;42.708;23.360;2023-11-21T01:39:19;95236.06;;;6.38;65.83
36192;BME280;22233;42.708;23.360;2023-11-21T01:41:49;95243.88;;;6.15;66.89
36192;BME280;22233;42.708;23.360;2023-11-21T01:44:15;95252.69;;;6.02;67.18
36192;BME280;22233;42.708;23.360;2023-11-21T01:46:42;95254.53;;;5.77;68.22
36192;BME280;22233;42.708;23.360;2023-11-21T01:49:08;95234.97;;;5.67;68.58
36192;BME280;22233;42.708;23.360;2023-11-21T01:51:35;95240.63;;;5.94;67.70
36192;BME280;22233;42.708;23.360;2023-11-21T01:54:02;95236.94;;;6.09;67.33
36192;BME280;22233;42.708;23.360;2023-11-21T01:56:30;95241.84;;;6.07;67.25
36192;BME280;22233;42.708;23.360;2023-11-21T01:58:57;95243.59;;;6.17;66.73
36192;BME280;22233;42.708;23.360;2023-11-21T02:01:22;95228.06;;;6.09;67.01
36192;BME280;22233;42.708;23.360;2023-11-21T02:03:48;95227.41;;;5.93;66.58
36192;BME280;22233;42.708;23.360;2023-11-21T02:06:13;95238.28;;;6.12;66.92
36192;BME280;22233;42.708;23.360;2023-11-21T02:08:38;95233.22;;;6.05;67.16
36192;BME280;22233;42.708;23.360;2023-11-21T02:11:05;95230.81;;;6.04;67.35
36192;BME280;22233;42.708;23.360;2023-11-21T02:13:31;95222.63;;;6.14;66.89
36192;BME280;22233;42.708;23.360;2023-11-21T02:15:57;95228.69;;;6.25;66.58
36192;BME280;22233;42.708;23.360;2023-11-21T02:18:23;95237.06;;;5.99;67.67
36192;BME280;22233;42.708;23.360;2023-11-21T02:20:48;95235.56;;;5.88;67.88
36192;BME280;22233;42.708;23.360;2023-11-21T02:23:14;95218.78;;;5.72;68.64
36192;BME280;22233;42.708;23.360;2023-11-21T02:25:40;95229.66;;;5.86;69.11
36192;BME280;22233;42.708;23.360;2023-11-21T02:28:07;95229.28;;;5.97;68.55
36192;BME280;22233;42.708;23.360;2023-11-21T02:30:33;95231.75;;;6.18;67.38
36192;BME280;22233;42.708;23.360;2023-11-21T02:33:02;95231.44;;;6.19;66.97
36192;BME280;22233;42.708;23.360;2023-11-21T02:35:27;95220.72;;;6.33;66.38
36192;BME280;22233;42.708;23.360;2023-11-21T02:37:53;95211.25;;;6.17;66.86
36192;BME280;22233;42.708;23.360;2023-11-21T02:40:19;95212.50;;;6.25;67.08
36192;BME280;22233;42.708;23.360;2023-11-21T02:42:50;95224.44;;;6.37;66.50
36192;BME280;22233;42.708;23.360;2023-11-21T02:45:21;95223.16;;;6.35;66.41
36192;BME280;22233;42.708;23.360;2023-11-21T02:47:47;95225.28;;;6.38;65.88
36192;BME280;22233;42.708;23.360;2023-11-21T02:50:14;95226.63;;;6.35;66.11
36192;BME280;22233;42.708;23.360;2023-11-21T02:52:39;95215.56;;;6.37;66.09
36192;BME280;22233;42.708;23.360;2023-11-21T02:55:05;95225.06;;;6.34;66.40
36192;BME280;22233;42.708;23.360;2023-11-21T02:57:32;95229.28;;;6.40;66.25
36192;BME280;22233;42.708;23.360;2023-11-21T02:59:58;95229.00;;;6.42;66.01
36192;BME280;22233;42.708;23.360;2023-11-21T03:02:25;95231.38;;;6.44;65.89
36192;BME280;22233;42.708;23.360;2023-11-21T03:04:51;95220.03;;;6.47;65.58
36192;BME280;22233;42.708;23.360;2023-11-21T03:07:16;95229.00;;;6.42;65.50
36192;BME280;22233;42.708;23.360;2023-11-21T03:09:44;95218.13;;;6.28;65.91
36192;BME280;22233;42.708;23.360;2023-11-21T03:12:10;95229.94;;;6.32;65.98
36192;BME280;22233;42.708;23.360;2023-11-21T03:14:37;95241.53;;;6.33;65.77
36192;BME280;22233;42.708;23.360;2023-11-21T03:17:02;95228.50;;;6.40;65.40
36192;BME280;22233;42.708;23.360;2023-11-21T03:19:30;95229.84;;;6.37;65.88
36192;BME280;22233;42.708;23.360;2023-11-21T03:21:55;95229.06;;;6.37;66.23
36192;BME280;22233;42.708;23.360;2023-11-21T03:24:20;95225.56;;;6.36;65.83
36192;BME280;22233;42.708;23.360;2023-11-21T03:26:48;95222.69;;;6.28;66.16
36192;BME280;22233;42.708;23.360;2023-11-21T03:29:13;95238.69;;;6.24;66.44
36192;BME280;22233;42.708;23.360;2023-11-21T03:31:40;95240.25;;;6.06;66.82
36192;BME280;22233;42.708;23.360;2023-11-21T03:34:05;95234.50;;;6.13;66.23
36192;BME280;22233;42.708;23.360;2023-11-21T03:36:31;95228.84;;;5.85;67.34
36192;BME280;22233;42.708;23.360;2023-11-21T03:38:57;95215.88;;;5.87;67.41
36192;BME280;22233;42.708;23.360;2023-11-21T03:41:22;95224.72;;;5.93;67.14
36192;BME280;22233;42.708;23.360;2023-11-21T03:43:48;95230.88;;;5.98;67.33
36192;BME280;22233;42.708;23.360;2023-11-21T03:46:13;95232.19;;;5.77;67.66
36192;BME280;22233;42.708;23.360;2023-11-21T03:48:39;95216.00;;;5.77;67.84
36192;BME280;22233;42.708;23.360;2023-11-21T03:51:04;95226.16;;;5.85;68.26
36192;BME280;22233;42.708;23.360;2023-11-21T03:53:30;95201.47;;;5.49;69.11
36192;BME280;22233;42.708;23.360;2023-11-21T03:55:55;95213.78;;;5.84;68.70
36192;BME280;22233;42.708;23.360;2023-11-21T03:58:21;95208.56;;;5.69;69.20
36192;BME280;22233;42.708;23.360;2023-11-21T04:00:47;95219.09;;;5.89;68.34
36192;BME280;22233;42.708;23.360;2023-11-21T04:03:14;95209.88;;;5.95;68.13
36192;BME280;22233;42.708;23.360;2023-11-21T04:05:40;95215.69;;;5.84;68.19
36192;BME280;22233;42.708;23.360;2023-11-21T04:08:06;95207.50;;;5.89;68.13
36192;BME280;22233;42.708;23.360;2023-11-21T04:10:32;95216.19;;;5.86;68.17
36192;BME280;22233;42.708;23.360;2023-11-21T04:12:58;95205.97;;;5.83;68.43
36192;BME280;22233;42.708;23.360;2023-11-21T04:15:23;95213.25;;;5.82;68.36
36192;BME280;22233;42.708;23.360;2023-11-21T04:17:48;95185.50;;;5.57;68.71
36192;BME280;22233;42.708;23.360;2023-11-21T04:20:14;95214.56;;;5.60;68.63
36192;BME280;22233;42.708;23.360;2023-11-21T04:22:40;95209.28;;;5.50;68.69
36192;BME280;22233;42.708;23.360;2023-11-21T04:25:10;95198.50;;;5.50;68.73
36192;BME280;22233;42.708;23.360;2023-11-21T04:27:38;95210.22;;;5.65;68.42
36192;BME280;22233;42.708;23.360;2023-11-21T04:30:04;95204.91;;;5.59;67.72
36192;BME280;22233;42.708;23.360;2023-11-21T04:32:30;95215.09;;;5.63;67.96
36192;BME280;22233;42.708;23.360;2023-11-21T04:34:55;95197.19;;;5.48;68.45
36192;BME280;22233;42.708;23.360;2023-11-21T04:37:21;95184.97;;;5.31;68.09
36192;BME280;22233;42.708;23.360;2023-11-21T04:39:46;95196.81;;;5.59;67.43
36192;BME280;22233;42.708;23.360;2023-11-21T04:42:12;95206.59;;;5.50;68.60
36192;BME280;22233;42.708;23.360;2023-11-21T04:44:37;95201.72;;;5.52;67.54
36192;BME280;22233;42.708;23.360;2023-11-21T04:47:06;95217.31;;;5.31;68.00
36192;BME280;22233;42.708;23.360;2023-11-21T04:49:31;95208.88;;;5.38;68.59
36192;BME280;22233;42.708;23.360;2023-11-21T04:51:56;95206.69;;;5.40;68.45
36192;BME280;22233;42.708;23.360;2023-11-21T04:54:22;95227.72;;;5.38;68.49
36192;BME280;22233;42.708;23.360;2023-11-21T04:56:47;95196.72;;;5.40;67.88
36192;BME280;22233;42.708;23.360;2023-11-21T04:59:12;95208.47;;;5.26;68.77
36192;BME280;22233;42.708;23.360;2023-11-21T05:01:38;95211.47;;;5.48;68.71
36192;BME280;22233;42.708;23.360;2023-11-21T05:04:04;95207.13;;;5.52;68.20
36192;BME280;22233;42.708;23.360;2023-11-21T05:06:31;95212.91;;;5.65;67.79
36192;BME280;22233;42.708;23.360;2023-11-21T05:08:56;95205.28;;;5.72;67.40
36192;BME280;22233;42.708;23.360;2023-11-21T05:11:25;95204.19;;;5.73;67.77
36192;BME280;22233;42.708;23.360;2023-11-21T05:13:51;95194.44;;;5.77;67.39
36192;BME280;22233;42.708;23.360;2023-11-21T05:16:16;95200.84;;;5.81;67.83
36192;BME280;22233;42.708;23.360;2023-11-21T05:18:41;95192.63;;;5.72;67.70
36192;BME280;22233;42.708;23.360;2023-11-21T05:21:07;95195.41;;;5.86;67.46
36192;BME280;22233;42.708;23.360;2023-11-21T05:23:33;95188.88;;;5.68;67.64
36192;BME280;22233;42.708;23.360;2023-11-21T05:25:59;95189.81;;;5.58;68.21
36192;BME280;22233;42.708;23.360;2023-11-21T05:28:24;95188.38;;;5.66;68.09
36192;BME280;22233;42.708;23.360;2023-11-21T05:30:50;95204.31;;;5.63;67.67
36192;BME280;22233;42.708;23.360;2023-11-21T05:33:16;95208.03;;;5.67;68.16
36192;BME280;22233;42.708;23.360;2023-11-21T05:35:41;95228.41;;;5.78;68.37
36192;BME280;22233;42.708;23.360;2023-11-21T05:38:06;95222.38;;;5.86;68.10
36192;BME280;22233;42.708;23.360;2023-11-21T05:40:32;95209.19;;;5.85;67.58
36192;BME280;22233;42.708;23.360;2023-11-21T05:42:58;95231.44;;;5.95;67.64
36192;BME280;22233;42.708;23.360;2023-11-21T05:45:23;95226.47;;;5.84;67.57
36192;BME280;22233;42.708;23.360;2023-11-21T05:47:49;95235.59;;;5.58;68.99
36192;BME280;22233;42.708;23.360;2023-11-21T05:50:16;95232.91;;;5.58;68.60
36192;BME280;22233;42.708;23.360;2023-11-21T05:52:43;95229.75;;;5.51;69.17
36192;BME280;22233;42.708;23.360;2023-11-21T05:55:09;95232.47;;;5.22;69.67
36192;BME280;22233;42.708;23.360;2023-11-21T05:57:35;95210.47;;;5.39;68.46
36192;BME280;22233;42.708;23.360;2023-11-21T06:00:06;95217.84;;;5.28;69.14
36192;BME280;22233;42.708;23.360;2023-11-21T06:02:40;95206.78;;;5.00;70.10
36192;BME280;22233;42.708;23.360;2023-11-21T06:05:09;95223.16;;;4.75;71.06
36192;BME280;22233;42.708;23.360;2023-11-21T06:07:35;95217.53;;;4.71;70.82
36192;BME280;22233;42.708;23.360;2023-11-21T06:10:02;95228.56;;;5.04;70.04
36192;BME280;22233;42.708;23.360;2023-11-21T06:12:31;95227.69;;;5.14;69.54
36192;BME280;22233;42.708;23.360;2023-11-21T06:14:56;95222.22;;;4.90;70.01
36192;BME280;22233;42.708;23.360;2023-11-21T06:17:22;95222.50;;;3.99;71.98
36192;BME280;22233;42.708;23.360;2023-11-21T06:19:49;95234.91;;;4.45;71.93
36192;BME280;22233;42.708;23.360;2023-11-21T06:22:15;95239.06;;;4.66;71.41
36192;BME280;22233;42.708;23.360;2023-11-21T06:24:40;95244.53;;;4.95;70.45
36192;BME280;22233;42.708;23.360;2023-11-21T06:27:07;95246.88;;;5.07;69.93
36192;BME280;22233;42.708;23.360;2023-11-21T06:29:33;95249.56;;;5.07;69.95
36192;BME280;22233;42.708;23.360;2023-11-21T06:31:58;95246.72;;;5.23;69.75
36192;BME280;22233;42.708;23.360;2023-11-21T06:34:24;95250.91;;;5.05;70.16
36192;BME280;22233;42.708;23.360;2023-11-21T06:36:49;95248.03;;;4.96;70.31
36192;BME280;22233;42.708;23.360;2023-11-21T06:39:15;95255.25;;;5.00;70.12
36192;BME280;22233;42.708;23.360;2023-11-21T06:41:42;95260.38;;;4.97;70.27
36192;BME280;22233;42.708;23.360;2023-11-21T06:44:08;95255.78;;;4.63;71.49
36192;BME280;22233;42.708;23.360;2023-11-21T06:46:34;95257.38;;;4.64;71.43
36192;BME280;22233;42.708;23.360;2023-11-21T06:48:59;95230.13;;;4.76;70.57
36192;BME280;22233;42.708;23.360;2023-11-21T06:51:25;95257.44;;;4.59;72.32
36192;BME280;22233;42.708;23.360;2023-11-21T06:53:50;95226.19;;;4.63;76.98
36192;BME280;22233;42.708;23.360;2023-11-21T06:56:16;95245.69;;;5.18;72.63
36192;BME280;22233;42.708;23.360;2023-11-21T06:58:43;95261.63;;;5.44;70.77
36192;BME280;22233;42.708;23.360;2023-11-21T07:01:10;95253.44;;;5.54;70.38
36192;BME280;22233;42.708;23.360;2023-11-21T07:03:36;95254.94;;;5.66;70.05
36192;BME280;22233;42.708;23.360;2023-11-21T07:06:03;95255.75;;;5.66;69.38
36192;BME280;22233;42.708;23.360;2023-11-21T07:08:28;95246.44;;;5.77;69.35
36192;BME280;22233;42.708;23.360;2023-11-21T07:10:54;95256.31;;;5.87;68.60
36192;BME280;22233;42.708;23.360;2023-11-21T07:13:19;95244.50;;;5.83;69.44
36192;BME280;22233;42.708;23.360;2023-11-21T07:15:44;95248.75;;;5.89;69.27
36192;BME280;22233;42.708;23.360;2023-11-21T07:18:10;95237.34;;;5.97;69.51
36192;BME280;22233;42.708;23.360;2023-11-21T07:20:36;95243.16;;;6.10;69.21
36192;BME280;22233;42.708;23.360;2023-11-21T07:23:02;95248.72;;;6.18;68.37
36192;BME280;22233;42.708;23.360;2023-11-21T07:25:29;95210.13;;;5.99;68.95
36192;BME280;22233;42.708;23.360;2023-11-21T07:27:54;95231.22;;;6.16;68.00
36192;BME280;22233;42.708;23.360;2023-11-21T07:30:20;95253.56;;;6.59;68.15
36192;BME280;22233;42.708;23.360;2023-11-21T07:32:47;95262.03;;;6.53;68.24
36192;BME280;22233;42.708;23.360;2023-11-21T07:35:13;95244.88;;;6.44;68.12
36192;BME280;22233;42.708;23.360;2023-11-21T07:37:38;95241.78;;;6.74;67.67
36192;BME280;22233;42.708;23.360;2023-11-21T07:40:04;95245.34;;;6.89;67.87
36192;BME280;22233;42.708;23.360;2023-11-21T07:42:30;95252.69;;;7.02;67.57
36192;BME280;22233;42.708;23.360;2023-11-21T07:44:55;95246.31;;;7.12;67.45
36192;BME280;22233;42.708;23.360;2023-11-21T07:47:21;95237.78;;;7.37;66.86
36192;BME280;22233;42.708;23.360;2023-11-21T07:49:47;95226.59;;;7.11;66.66
36192;BME280;22233;42.708;23.360;2023-11-21T07:52:13;95230.25;;;7.20;67.08
36192;BME280;22233;42.708;23.360;2023-11-21T07:54:41;95225.69;;;7.35;66.66
36192;BME280;22233;42.708;23.360;2023-11-21T07:57:06;95221.53;;;7.24;66.74
36192;BME280;22233;42.708;23.360;2023-11-21T07:59:32;95226.69;;;7.39;66.90
36192;BME280;22233;42.708;23.360;2023-11-21T08:01:58;95234.38;;;7.32;66.52
36192;BME280;22233;42.708;23.360;2023-11-21T08:04:23;95231.06;;;7.21;67.56
36192;BME280;22233;42.708;23.360;2023-11-21T08:06:48;95231.97;;;6.97;68.23
36192;BME280;22233;42.708;23.360;2023-11-21T08:09:14;95221.38;;;6.82;69.10
36192;BME280;22233;42.708;23.360;2023-11-21T08:11:40;95205.72;;;7.17;68.40
36192;BME280;22233;42.708;23.360;2023-11-21T08:14:06;95215.88;;;7.06;68.95
36192;BME280;22233;42.708;23.360;2023-11-21T08:16:31;95201.25;;;7.40;68.08
36192;BME280;22233;42.708;23.360;2023-11-21T08:18:57;95205.81;;;7.72;67.57
36192;BME280;22233;42.708;23.360;2023-11-21T08:21:22;95224.66;;;7.91;66.94
36192;BME280;22233;42.708;23.360;2023-11-21T08:23:54;95223.03;;;7.90;67.36
36192;BME280;22233;42.708;23.360;2023-11-21T08:26:23;95222.75;;;7.92;67.64
36192;BME280;22233;42.708;23.360;2023-11-21T08:28:49;95221.13;;;8.05;67.50
36192;BME280;22233;42.708;23.360;2023-11-21T08:31:14;95210.63;;;7.89;68.06
36192;BME280;22233;42.708;23.360;2023-11-21T08:33:41;95226.16;;;7.97;67.34
36192;BME280;22233;42.708;23.360;2023-11-21T08:36:10;95227.03;;;8.07;67.10
36192;BME280;22233;42.708;23.360;2023-11-21T08:38:37;95231.06;;;8.09;65.94
36192;BME280;22233;42.708;23.360;2023-11-21T08:41:05;95216.22;;;8.07;66.40
36192;BME280;22233;42.708;23.360;2023-11-21T08:43:35;95226.22;;;8.34;66.42
36192;BME280;22233;42.708;23.360;2023-11-21T08:46:05;95220.63;;;8.44;66.00
36192;BME280;22233;42.708;23.360;2023-11-21T08:48:30;95214.13;;;7.90;66.37
36192;BME280;22233;42.708;23.360;2023-11-21T08:50:56;95193.41;;;7.99;66.20
36192;BME280;22233;42.708;23.360;2023-11-21T08:53:21;95208.44;;;8.05;65.48
36192;BME280;22233;42.708;23.360;2023-11-21T08:55:47;95200.69;;;8.12;65.62
36192;BME280;22233;42.708;23.360;2023-11-21T08:58:13;95212.28;;;8.27;65.19
36192;BME280;22233;42.708;23.360;2023-11-21T09:00:39;95202.97;;;8.47;65.00
36192;BME280;22233;42.708;23.360;2023-11-21T09:03:05;95198.75;;;8.40;64.84
36192;BME280;22233;42.708;23.360;2023-11-21T09:05:34;95187.16;;;8.76;63.89
36192;BME280;22233;42.708;23.360;2023-11-21T09:07:59;95175.25;;;8.41;65.72
36192;BME280;22233;42.708;23.360;2023-11-21T09:10:25;95177.09;;;8.54;64.62
36192;BME280;22233;42.708;23.360;2023-11-21T09:12:50;95166.69;;;8.48;65.39
36192;BME280;22233;42.708;23.360;2023-11-21T09:15:17;95156.88;;;8.74;63.81
36192;BME280;22233;42.708;23.360;2023-11-21T09:17:42;95135.34;;;8.69;64.35
36192;BME280;22233;42.708;23.360;2023-11-21T09:20:10;95140.25;;;8.90;64.10
36192;BME280;22233;42.708;23.360;2023-11-21T09:22:35;95135.03;;;8.93;63.26
36192;BME280;22233;42.708;23.360;2023-11-21T09:25:01;95137.53;;;9.12;64.54
36192;BME280;22233;42.708;23.360;2023-11-21T09:27:30;95129.44;;;9.21;63.98
36192;BME280;22233;42.708;23.360;2023-11-21T09:29:56;95124.75;;;9.13;64.02
36192;BME280;22233;42.708;23.360;2023-11-21T09:32:23;95127.06;;;9.19;62.98
36192;BME280;22233;42.708;23.360;2023-11-21T09:34:49;95100.56;;;9.48;62.41
36192;BME280;22233;42.708;23.360;2023-11-21T09:37:15;95077.25;;;9.47;61.43
36192;BME280;22233;42.708;23.360;2023-11-21T09:39:41;95092.03;;;9.32;62.58
36192;BME280;22233;42.708;23.360;2023-11-21T09:42:14;95072.09;;;9.36;62.12
36192;BME280;22233;42.708;23.360;2023-11-21T09:44:51;95057.13;;;9.39;62.96
36192;BME280;22233;42.708;23.360;2023-11-21T09:47:21;95060.88;;;9.60;61.43
36192;BME280;22233;42.708;23.360;2023-11-21T09:49:48;95073.34;;;9.79;61.39
36192;BME280;22233;42.708;23.360;2023-11-21T09:52:39;95059.63;;;9.75;61.72
36192;BME280;22233;42.708;23.360;2023-11-21T09:55:09;95034.06;;;9.59;61.39
36192;BME280;22233;42.708;23.360;2023-11-21T09:57:38;95043.63;;;9.65;61.99
36192;BME280;22233;42.708;23.360;2023-11-21T10:00:04;95041.63;;;9.97;61.05
36192;BME280;22233;42.708;23.360;2023-11-21T10:02:32;95032.22;;;9.94;60.50
36192;BME280;22233;42.708;23.360;2023-11-21T10:05:02;95029.81;;;10.28;60.74
36192;BME280;22233;42.708;23.360;2023-11-21T10:07:31;95020.06;;;10.18;59.76
36192;BME280;22233;42.708;23.360;2023-11-21T10:10:00;95037.31;;;10.13;60.35
36192;BME280;22233;42.708;23.360;2023-11-21T10:12:28;95028.06;;;10.23;60.02
36192;BME280;22233;42.708;23.360;2023-11-21T10:14:54;95026.31;;;10.36;60.38
36192;BME280;22233;42.708;23.360;2023-11-21T10:17:23;95035.72;;;10.73;58.12
36192;BME280;22233;42.708;23.360;2023-11-21T10:19:51;95019.13;;;10.49;59.22
36192;BME280;22233;42.708;23.360;2023-11-21T10:22:19;95002.31;;;10.73;58.24
36192;BME280;22233;42.708;23.360;2023-11-21T10:24:46;95015.47;;;10.36;59.82
36192;BME280;22233;42.708;23.360;2023-11-21T10:27:11;95010.50;;;10.55;58.55
36192;BME280;22233;42.708;23.360;2023-11-21T10:29:39;95014.59;;;10.70;58.78
36192;BME280;22233;42.708;23.360;2023-11-21T10:32:05;94992.19;;;10.91;56.73
36192;BME280;22233;42.708;23.360;2023-11-21T10:34:31;94997.56;;;11.38;56.84
36192;BME280;22233;42.708;23.360;2023-11-21T10:36:56;94996.56;;;11.51;56.80
36192;BME280;22233;42.708;23.360;2023-11-21T10:39:23;94997.91;;;10.98;58.19
36192;BME280;22233;42.708;23.360;2023-11-21T10:41:52;94993.06;;;11.12;58.03
36192;BME280;22233;42.708;23.360;2023-11-21T10:44:18;94991.25;;;11.25;57.79
36192;BME280;22233;42.708;23.360;2023-11-21T10:46:49;94986.94;;;11.54;57.64
36192;BME280;22233;42.708;23.360;2023-11-21T10:49:19;94985.09;;;11.67;56.43
36192;BME280;22233;42.708;23.360;2023-11-21T10:51:45;94976.00;;;11.63;56.16
36192;BME280;22233;42.708;23.360;2023-11-21T10:54:11;94982.81;;;11.69;55.04
36192;BME280;22233;42.708;23.360;2023-11-21T10:56:39;94980.78;;;11.66;54.69
36192;BME280;22233;42.708;23.360;2023-11-21T10:59:10;94978.22;;;11.69;55.32
36192;BME280;22233;42.708;23.360;2023-11-21T11:01:44;94973.09;;;11.68;54.87
36192;BME280;22233;42.708;23.360;2023-11-21T11:04:11;94971.22;;;11.89;54.42
36192;BME280;22233;42.708;23.360;2023-11-21T11:06:46;94952.97;;;11.81;55.30
36192;BME280;22233;42.708;23.360;2023-11-21T11:09:17;94946.09;;;12.05;54.92
36192;BME280;22233;42.708;23.360;2023-11-21T11:11:42;94943.22;;;11.80;55.58
36192;BME280;22233;42.708;23.360;2023-11-21T11:14:13;94964.22;;;12.22;54.21
36192;BME280;22233;42.708;23.360;2023-11-21T11:16:40;94954.44;;;12.42;53.50
36192;BME280;22233;42.708;23.360;2023-11-21T11:19:09;94950.44;;;12.39;53.71
36192;BME280;22233;42.708;23.360;2023-11-21T11:30:47;94927.19;;;12.08;54.43
36192;BME280;22233;42.708;23.360;2023-11-21T11:35:51;94921.91;;;12.24;54.96
36192;BME280;22233;42.708;23.360;2023-11-21T11:38:21;94914.84;;;12.23;54.68
36192;BME280;22233;42.708;23.360;2023-11-21T11:40:47;94909.94;;;12.37;54.66
36192;BME280;22233;42.708;23.360;2023-11-21T11:43:13;94921.75;;;12.42;55.08
36192;BME280;22233;42.708;23.360;2023-11-21T11:45:38;94912.41;;;12.43;54.37
36192;BME280;22233;42.708;23.360;2023-11-21T11:48:08;94914.22;;;12.38;54.55
36192;BME280;22233;42.708;23.360;2023-11-21T11:50:42;94936.41;;;12.16;54.68
36192;BME280;22233;42.708;23.360;2023-11-21T11:53:14;94947.06;;;11.79;55.93
36192;BME280;22233;42.708;23.360;2023-11-21T11:55:40;94944.34;;;11.58;57.53
36192;BME280;22233;42.708;23.360;2023-11-21T11:58:06;94941.69;;;11.70;58.20
36192;BME280;22233;42.708;23.360;2023-11-21T12:03:00;94922.97;;;12.11;57.72
36192;BME280;22233;42.708;23.360;2023-11-21T12:05:29;94918.00;;;12.13;57.31
36192;BME280;22233;42.708;23.360;2023-11-21T12:08:03;94931.41;;;12.18;57.48
36192;BME280;22233;42.708;23.360;2023-11-21T12:10:31;94928.66;;;12.06;58.58
36192;BME280;22233;42.708;23.360;2023-11-21T12:12:57;94934.69;;;12.11;57.21
36192;BME280;22233;42.708;23.360;2023-11-21T12:15:24;94941.09;;;11.65;58.60
36192;BME280;22233;42.708;23.360;2023-11-21T12:17:51;94935.00;;;11.68;60.09
36192;BME280;22233;42.708;23.360;2023-11-21T12:20:21;94930.09;;;11.82;59.80
36192;BME280;22233;42.708;23.360;2023-11-21T12:25:24;94918.31;;;11.48;62.20
36192;BME280;22233;42.708;23.360;2023-11-21T12:27:54;94923.03;;;11.39;62.89
36192;BME280;22233;42.708;23.360;2023-11-21T12:30:21;94917.53;;;11.48;63.03
36192;BME280;22233;42.708;23.360;2023-11-21T12:32:50;94916.34;;;11.57;63.67
36192;BME280;22233;42.708;23.360;2023-11-21T12:35:17;94920.88;;;11.53;62.28
36192;BME280;22233;42.708;23.360;2023-11-21T12:37:45;94935.72;;;11.35;63.90
36192;BME280;22233;42.708;23.360;2023-11-21T12:40:11;94925.38;;;11.19;64.03
36192;BME280;22233;42.708;23.360;2023-11-21T12:42:42;94924.47;;;11.36;64.06
36192;BME280;22233;42.708;23.360;2023-11-21T12:48:06;94908.69;;;10.62;66.48
36192;BME280;22233;42.708;23.360;2023-11-21T12:50:37;94915.28;;;10.99;65.13
36192;BME280;22233;42.708;23.360;2023-11-21T12:53:09;94909.88;;;11.20;64.58
36192;BME280;22233;42.708;23.360;2023-11-21T12:55:35;94902.03;;;11.18;63.41
36192;BME280;22233;42.708;23.360;2023-11-21T12:58:06;94890.19;;;11.23;64.68
36192;BME280;22233;42.708;23.360;2023-11-21T13:00:45;94875.06;;;10.84;64.13
36192;BME280;22233;42.708;23.360;2023-11-21T13:03:13;94876.16;;;11.12;63.38
36192;BME280;22233;42.708;23.360;2023-11-21T13:05:43;94880.56;;;11.26;62.47
36192;BME280;22233;42.708;23.360;2023-11-21T13:08:13;94869.84;;;11.29;62.43
36192;BME280;22233;42.708;23.360;2023-11-21T13:10:40;94884.75;;;11.23;62.46
36192;BME280;22233;42.708;23.360;2023-11-21T13:13:09;94881.69;;;11.25;62.60
36192;BME280;22233;42.708;23.360;2023-11-21T13:15:39;94867.91;;;11.30;62.51